Time;durP1;ratioP1;P1;durP2;ratioP2;P2;SDS_P1;SDS_P2;PMS_P1;PMS_P2;Temp;Humidity;BMP_temperature;BMP_pressure;BME280_temperature;BME280_humidity;BME280_pressure;Samples;Min_cycle;Max_cycle;Signal;HPM_P1;HPM_P2
2022/10/31 00:01:22;;;;;;;;;;;;;;;11.32;88.36;96721.69;4972417;28;19922;-79
2022/10/31 00:03:49;;;;;;;;;;;;;;;11.35;88.77;96726.50;4974643;28;19926;-77
2022/10/31 00:06:17;;;;;;;;;;;;;;;11.41;89.20;96722.53;4976885;28;20014;-79
2022/10/31 00:08:44;;;;;;;;;;;;;;;11.46;89.15;96716.94;4977246;28;19925;-79
2022/10/31 00:11:12;;;;;;;;;;;;;;;11.52;89.34;96718.41;4959869;28;19957;-79
2022/10/31 00:13:39;;;;;;;;;;;;;;;11.51;89.03;96708.63;4957786;29;19922;-79
2022/10/31 00:16:05;;;;;;;;;;;;;;;11.51;89.40;96708.63;4940097;29;19923;-79
2022/10/31 00:18:32;;;;;;;;;;;;;;;11.49;89.20;96716.31;4957821;29;20005;-80
2022/10/31 00:21:02;;;;;;;;;;;;;;;11.46;89.36;96711.47;4957531;29;20018;-78
2022/10/31 00:23:28;;;;;;;;;;;;;;;11.40;89.30;96713.53;4961162;28;19922;-79
2022/10/31 00:25:55;;;;;;;;;;;;;;;11.41;89.24;96714.34;4977266;28;19922;-79
2022/10/31 00:28:22;;;;;;;;;;;;;;;11.42;89.30;96715.94;4977195;28;22624;-80
2022/10/31 00:30:49;;;;;;;;;;;;;;;11.40;89.43;96712.75;4977253;28;19922;-79
2022/10/31 00:33:15;;;;;;;;;;;;;;;11.44;89.47;96702.81;4958696;28;20002;-79
2022/10/31 00:35:42;;;;;;;;;;;;;;;11.47;89.57;96704.91;4960161;29;20395;-78
2022/10/31 00:38:08;;;;;;;;;;;;;;;11.49;89.75;96699.97;4964385;29;20021;-80
2022/10/31 00:40:35;;;;;;;;;;;;;;;11.51;89.50;96708.63;4966174;29;19928;-79
2022/10/31 00:43:01;;;;;;;;;;;;;;;11.52;89.04;96707.50;4992488;28;20292;-79
2022/10/31 00:45:29;;;;;;;;;;;;;;;11.53;88.72;96705.56;4996883;28;19922;-78
2022/10/31 00:47:55;;;;;;;;;;;;;;;11.53;87.69;96711.03;4996484;28;19957;-79
2022/10/31 00:50:21;;;;;;;;;;;;;;;11.48;87.20;96709.22;4995040;28;19968;-78
2022/10/31 00:52:48;;;;;;;;;;;;;;;11.48;86.95;96714.69;4996841;28;19933;-78
2022/10/31 00:55:14;;;;;;;;;;;;;;;11.44;86.23;96719.19;4996595;28;19921;-79
2022/10/31 00:57:41;;;;;;;;;;;;;;;11.40;86.37;96712.75;4995612;28;19921;-79
2022/10/31 01:00:08;;;;;;;;;;;;;;;11.39;86.28;96716.59;4995298;28;19928;-79
2022/10/31 01:02:36;;;;;;;;;;;;;;;11.36;86.08;96717.22;4994973;28;19922;-79
2022/10/31 01:05:03;;;;;;;;;;;;;;;11.29;86.25;96716.88;4977575;28;19990;-78
2022/10/31 01:07:29;;;;;;;;;;;;;;;11.21;86.07;96716.50;4977842;28;20332;-79
2022/10/31 01:09:56;;;;;;;;;;;;;;;11.16;86.17;96716.63;4986076;28;19932;-79
2022/10/31 01:12:23;;;;;;;;;;;;;;;11.13;86.06;96722.72;4944189;29;19922;-78
2022/10/31 01:14:50;;;;;;;;;;;;;;;11.10;86.42;96720.59;4955095;28;20017;-78
2022/10/31 01:17:16;;;;;;;;;;;;;;;11.10;87.02;96719.81;4977216;28;19928;-79
2022/10/31 01:19:44;;;;;;;;;;;;;;;11.07;86.34;96718.53;4976802;28;19961;-79
2022/10/31 01:22:10;;;;;;;;;;;;;;;10.93;84.91;96709.63;4976152;28;19921;-79
2022/10/31 01:24:37;;;;;;;;;;;;;;;10.87;84.49;96721.75;4976831;28;19957;-79
2022/10/31 01:27:03;;;;;;;;;;;;;;;10.78;84.02;96723.63;4975886;28;19922;-78
2022/10/31 01:29:30;;;;;;;;;;;;;;;10.75;84.48;96718.78;4960059;28;20427;-79
2022/10/31 01:31:56;;;;;;;;;;;;;;;10.69;84.65;96713.44;4987390;28;19922;-78
2022/10/31 01:34:23;;;;;;;;;;;;;;;10.67;84.72;96712.97;4976294;28;19910;-79
2022/10/31 01:36:51;;;;;;;;;;;;;;;10.64;84.84;96708.13;4992851;28;19922;-80
2022/10/31 01:39:17;;;;;;;;;;;;;;;10.64;85.30;96713.56;4993057;28;19922;-79
2022/10/31 01:41:45;;;;;;;;;;;;;;;10.61;85.93;96707.97;4993323;28;19916;-78
2022/10/31 01:44:30;;;;;;;;;;;;;;;10.60;85.61;96712.59;4992297;28;19958;-79
2022/10/31 01:46:59;;;;;;;;;;;;;;;10.59;86.04;96716.41;4992239;28;19932;-79
2022/10/31 01:49:28;;;;;;;;;;;;;;;10.60;86.73;96712.59;4992449;28;19986;-79
2022/10/31 01:51:58;;;;;;;;;;;;;;;10.61;86.87;96710.69;4992581;28;19989;-79
2022/10/31 01:54:27;;;;;;;;;;;;;;;10.57;85.70;96718.66;4971350;28;19922;-78
2022/10/31 01:56:55;;;;;;;;;;;;;;;10.43;84.78;96718.69;4985990;28;20381;-79
2022/10/31 01:59:22;;;;;;;;;;;;;;;10.36;85.60;96712.06;4984904;28;19930;-79
2022/10/31 02:01:51;;;;;;;;;;;;;;;10.34;86.03;96711.59;4984591;28;19944;-78
2022/10/31 02:04:18;;;;;;;;;;;;;;;10.33;85.64;96712.69;4983316;28;20407;-78
2022/10/31 02:06:47;;;;;;;;;;;;;;;10.35;86.77;96710.47;4966564;28;19922;-79
2022/10/31 02:09:16;;;;;;;;;;;;;;;10.36;86.90;96712.88;4972533;28;19928;-79
2022/10/31 02:11:43;;;;;;;;;;;;;;;10.41;87.58;96714.69;4979186;28;20289;-78
2022/10/31 02:14:10;;;;;;;;;;;;;;;10.42;87.51;96710.84;4978724;28;20444;-79
2022/10/31 02:16:36;;;;;;;;;;;;;;;10.36;87.40;96712.88;4982946;28;19928;-79
2022/10/31 02:19:03;;;;;;;;;;;;;;;10.36;88.26;96712.88;4980677;28;19922;-79
2022/10/31 02:21:33;;;;;;;;;;;;;;;10.39;88.90;96706.03;4978684;28;19929;-79
2022/10/31 02:24:16;;;;;;;;;;;;;;;10.38;88.98;96715.28;4977493;28;19922;-79
2022/10/31 02:26:51;;;;;;;;;;;;;;;10.41;89.24;96722.84;4979281;28;19967;-80
2022/10/31 02:29:33;;;;;;;;;;;;;;;10.46;89.26;96711.84;4978374;28;19929;-79
2022/10/31 02:32:04;;;;;;;;;;;;;;;10.41;89.05;96709.25;4977350;28;19932;-79
2022/10/31 02:34:35;;;;;;;;;;;;;;;10.40;89.16;96718.53;4975351;28;20012;-79
2022/10/31 02:37:07;;;;;;;;;;;;;;;10.42;89.25;96713.56;4975176;28;19929;-79
2022/10/31 02:39:38;;;;;;;;;;;;;;;10.45;89.59;96711.03;4958809;28;19928;-80
2022/10/31 02:42:08;;;;;;;;;;;;;;;10.47;89.22;96707.19;4976970;28;19922;-79
2022/10/31 02:44:39;;;;;;;;;;;;;;;10.48;89.02;96708.81;4977020;28;19928;-79
2022/10/31 02:47:09;;;;;;;;;;;;;;;10.47;88.98;96713.44;4972481;28;19922;-79
2022/10/31 02:49:39;;;;;;;;;;;;;;;10.50;89.20;96710.13;4975898;28;20001;-79
2022/10/31 02:52:14;;;;;;;;;;;;;;;10.50;88.55;96718.28;4959650;28;19929;-79
2022/10/31 02:54:41;;;;;;;;;;;;;;;10.43;88.84;96707.81;4976394;28;19926;-80
2022/10/31 02:57:08;;;;;;;;;;;;;;;10.45;88.74;96715.69;4976635;28;19922;-79
2022/10/31 02:59:36;;;;;;;;;;;;;;;10.45;89.02;96715.69;4976091;28;19929;-79
2022/10/31 03:02:23;;;;;;;;;;;;;;;10.43;88.89;96712.44;4976385;28;19922;-79
2022/10/31 03:05:08;;;;;;;;;;;;;;;10.40;88.82;96713.09;4976536;28;19932;-80
2022/10/31 03:07:41;;;;;;;;;;;;;;;10.39;88.73;96716.91;4986086;28;19922;-80
2022/10/31 03:10:14;;;;;;;;;;;;;;;10.39;88.34;96717.72;4995026;28;20016;-79
2022/10/31 03:12:45;;;;;;;;;;;;;;;10.39;87.40;96727.81;4995174;28;20292;-79
2022/10/31 03:15:14;;;;;;;;;;;;;;;10.35;86.76;96729.53;4995298;28;19928;-78
2022/10/31 03:17:47;;;;;;;;;;;;;;;10.30;87.22;96729.66;4995481;28;19926;-79
2022/10/31 03:20:14;;;;;;;;;;;;;;;10.24;87.42;96725.44;4977647;28;19921;-79
2022/10/31 03:22:43;;;;;;;;;;;;;;;10.18;87.57;96722.78;4995353;28;19960;-79
2022/10/31 03:25:10;;;;;;;;;;;;;;;10.19;87.40;96724.41;4995223;28;20016;-79
2022/10/31 03:27:37;;;;;;;;;;;;;;;10.21;87.14;96729.53;4995294;28;19922;-79
2022/10/31 03:30:07;;;;;;;;;;;;;;;10.16;86.32;96730.44;4985442;28;19973;-79
2022/10/31 03:32:36;;;;;;;;;;;;;;;10.08;86.51;96739.34;4993962;28;19926;-79
2022/10/31 03:35:06;;;;;;;;;;;;;;;10.01;87.05;96741.66;4995543;28;19944;-79
2022/10/31 03:37:35;;;;;;;;;;;;;;;9.99;87.36;96735.72;4995459;28;19921;-79
2022/10/31 03:40:03;;;;;;;;;;;;;;;9.95;87.65;96737.44;4999343;28;19922;-79
2022/10/31 03:42:31;;;;;;;;;;;;;;;9.94;87.55;96738.56;4983840;28;19922;-79
2022/10/31 03:44:59;;;;;;;;;;;;;;;9.87;87.82;96738.16;5002084;28;19921;-80
2022/10/31 03:47:26;;;;;;;;;;;;;;;9.85;87.74;96740.38;5001496;28;19927;-79
2022/10/31 03:49:53;;;;;;;;;;;;;;;9.84;87.90;96739.56;5003576;28;19955;-79
2022/10/31 03:52:25;;;;;;;;;;;;;;;9.79;87.75;96736.16;5001873;28;19926;-79
2022/10/31 03:54:54;;;;;;;;;;;;;;;9.77;87.75;96735.66;4986052;28;19922;-79
2022/10/31 03:57:24;;;;;;;;;;;;;;;9.75;87.82;96740.56;5001567;28;19932;-79
2022/10/31 03:59:54;;;;;;;;;;;;;;;9.70;88.22;96740.66;5001886;28;19946;-80
2022/10/31 04:02:23;;;;;;;;;;;;;;;9.70;88.14;96736.03;5001272;28;19926;-79
2022/10/31 04:04:50;;;;;;;;;;;;;;;9.74;88.40;96733.53;5007717;28;19932;-79
2022/10/31 04:07:17;;;;;;;;;;;;;;;9.71;88.25;96728.69;5012596;28;19949;-79
2022/10/31 04:09:47;;;;;;;;;;;;;;;9.72;88.23;96731.13;5008025;28;19922;-79
2022/10/31 04:12:15;;;;;;;;;;;;;;;9.73;88.18;96726.47;5004864;28;19921;-80
2022/10/31 04:14:43;;;;;;;;;;;;;;;9.71;88.16;96723.25;5003254;28;19922;-78
2022/10/31 04:17:12;;;;;;;;;;;;;;;9.68;88.08;96725.47;4999533;28;20363;-79
2022/10/31 04:19:38;;;;;;;;;;;;;;;9.67;88.06;96731.22;4987551;28;19922;-79
2022/10/31 04:22:05;;;;;;;;;;;;;;;9.67;88.25;96726.59;4987056;28;19929;-78
2022/10/31 04:24:32;;;;;;;;;;;;;;;9.66;88.28;96722.25;4969479;28;19922;-78
2022/10/31 04:26:59;;;;;;;;;;;;;;;9.69;88.16;96726.28;4970736;28;19986;-79
2022/10/31 04:29:26;;;;;;;;;;;;;;;9.72;88.27;96731.13;4989890;28;19929;-80
2022/10/31 04:31:52;;;;;;;;;;;;;;;9.76;88.41;96728.56;4988632;28;19985;-79
2022/10/31 04:34:19;;;;;;;;;;;;;;;9.78;88.17;96723.66;4971328;28;19945;-79
2022/10/31 04:36:46;;;;;;;;;;;;;;;9.78;88.29;96718.22;4989826;28;19965;-79
2022/10/31 04:39:12;;;;;;;;;;;;;;;9.75;88.25;96727.78;4988153;28;20361;-79
2022/10/31 04:41:39;;;;;;;;;;;;;;;9.74;88.35;96725.38;4970863;28;20618;-79
2022/10/31 04:44:07;;;;;;;;;;;;;;;9.75;88.13;96735.13;4973966;28;19954;-79
2022/10/31 04:46:33;;;;;;;;;;;;;;;9.73;88.28;96732.72;4992092;28;19960;-79
2022/10/31 04:49:00;;;;;;;;;;;;;;;9.73;88.43;96727.28;4992704;28;19990;-79
2022/10/31 04:51:27;;;;;;;;;;;;;;;9.70;88.36;96729.78;4976280;28;19922;-79
2022/10/31 04:53:53;;;;;;;;;;;;;;;9.62;88.35;96732.13;4976758;28;19932;-79
2022/10/31 04:56:20;;;;;;;;;;;;;;;9.55;88.15;96730.91;4993025;28;19949;-79
2022/10/31 04:58:46;;;;;;;;;;;;;;;9.58;88.01;96736.53;4992306;28;19954;-79
2022/10/31 05:01:14;;;;;;;;;;;;;;;9.55;87.96;96737.16;4993044;28;19922;-79
2022/10/31 05:03:40;;;;;;;;;;;;;;;9.52;88.06;96726.88;4994703;28;19926;-79
2022/10/31 05:06:07;;;;;;;;;;;;;;;9.51;87.89;96728.00;4984361;28;19993;-78
2022/10/31 05:08:34;;;;;;;;;;;;;;;9.52;88.11;96726.88;4993327;28;20020;-79
2022/10/31 05:11:00;;;;;;;;;;;;;;;9.55;88.15;96730.91;4993983;28;19945;-78
2022/10/31 05:13:27;;;;;;;;;;;;;;;9.52;88.28;96726.09;5012023;28;19956;-79
2022/10/31 05:15:53;;;;;;;;;;;;;;;9.51;87.96;96725.28;5012670;28;19981;-79
2022/10/31 05:18:21;;;;;;;;;;;;;;;9.50;88.01;96734.56;4993526;28;19990;-79
2022/10/31 05:20:47;;;;;;;;;;;;;;;9.51;88.08;96741.59;4992820;28;19977;-80
2022/10/31 05:23:14;;;;;;;;;;;;;;;9.52;87.95;96728.81;4983423;28;19981;-80
2022/10/31 05:25:41;;;;;;;;;;;;;;;9.52;88.34;96726.88;4994072;28;19985;-80
2022/10/31 05:28:08;;;;;;;;;;;;;;;9.54;88.30;96723.84;4983031;28;19928;-79
2022/10/31 05:30:34;;;;;;;;;;;;;;;9.58;88.63;96722.94;4992171;28;19929;-79
2022/10/31 05:33:01;;;;;;;;;;;;;;;9.60;88.69;96718.00;4993885;28;19926;-79
2022/10/31 05:35:30;;;;;;;;;;;;;;;9.61;88.86;96716.94;4985630;28;19933;-79
2022/10/31 05:37:58;;;;;;;;;;;;;;;9.58;88.93;96714.00;4993785;28;19922;-79
2022/10/31 05:40:25;;;;;;;;;;;;;;;9.60;88.73;96715.28;4992934;28;19973;-79
2022/10/31 05:42:52;;;;;;;;;;;;;;;9.62;88.89;96715.00;4993865;28;20009;-80
2022/10/31 05:45:19;;;;;;;;;;;;;;;9.64;88.86;96713.59;4995104;28;19922;-80
2022/10/31 05:47:51;;;;;;;;;;;;;;;9.66;89.13;96711.38;4996030;28;20365;-79
2022/10/31 05:50:17;;;;;;;;;;;;;;;9.66;89.04;96716.81;4994408;28;19921;-77
2022/10/31 05:52:45;;;;;;;;;;;;;;;9.61;89.19;96719.66;4995149;28;19964;-80
2022/10/31 05:55:12;;;;;;;;;;;;;;;9.60;88.90;96722.66;4993688;28;19964;-79
2022/10/31 05:57:38;;;;;;;;;;;;;;;9.61;88.83;96716.94;4977984;28;19921;-80
2022/10/31 06:00:06;;;;;;;;;;;;;;;9.60;88.66;96719.94;4994054;28;20005;-79
2022/10/31 06:02:34;;;;;;;;;;;;;;;9.58;88.60;96720.22;4994216;28;19929;-80
2022/10/31 06:05:00;;;;;;;;;;;;;;;9.62;88.58;96720.44;4994789;28;19922;-79
2022/10/31 06:07:27;;;;;;;;;;;;;;;9.62;88.67;96715.00;4993964;28;19914;-80
2022/10/31 06:09:55;;;;;;;;;;;;;;;9.62;88.72;96715.81;4977441;28;19922;-79
2022/10/31 06:12:21;;;;;;;;;;;;;;;9.65;88.35;96719.81;4993336;28;19944;-79
2022/10/31 06:14:48;;;;;;;;;;;;;;;9.68;88.56;96725.47;4994978;28;19954;-79
2022/10/31 06:17:14;;;;;;;;;;;;;;;9.73;87.94;96731.91;4994689;28;20024;-80
2022/10/31 06:19:41;;;;;;;;;;;;;;;9.73;87.97;96737.38;4978287;28;19926;-79
2022/10/31 06:22:07;;;;;;;;;;;;;;;9.75;87.39;96735.13;4994342;28;19922;-79
2022/10/31 06:24:34;;;;;;;;;;;;;;;9.73;86.61;96734.63;4994874;28;19973;-80
2022/10/31 06:27:02;;;;;;;;;;;;;;;9.73;86.88;96731.91;4993668;28;19981;-79
2022/10/31 06:29:28;;;;;;;;;;;;;;;9.73;86.94;96732.72;4992502;28;19989;-80
2022/10/31 06:31:55;;;;;;;;;;;;;;;9.75;86.74;96735.13;4975071;28;19922;-79
2022/10/31 06:34:21;;;;;;;;;;;;;;;9.74;86.70;96738.97;4991646;28;22859;-80
2022/10/31 06:36:48;;;;;;;;;;;;;;;9.75;86.92;96737.84;4992657;28;19961;-79
2022/10/31 06:39:14;;;;;;;;;;;;;;;9.73;86.71;96732.72;4991664;28;20010;-78
2022/10/31 06:41:41;;;;;;;;;;;;;;;9.76;87.23;96736.75;4993751;28;19936;-80
2022/10/31 06:44:09;;;;;;;;;;;;;;;9.80;87.16;96744.00;4993250;28;19925;-79
2022/10/31 06:46:35;;;;;;;;;;;;;;;9.87;87.37;96738.16;4975647;28;19926;-79
2022/10/31 06:49:02;;;;;;;;;;;;;;;9.95;87.40;96734.72;4991723;28;19981;-77
2022/10/31 06:51:28;;;;;;;;;;;;;;;10.00;87.39;96736.53;4976482;28;19933;-79
2022/10/31 06:53:55;;;;;;;;;;;;;;;10.05;87.82;96734.50;4993368;28;20026;-80
2022/10/31 06:56:21;;;;;;;;;;;;;;;10.11;88.04;96743.34;4991150;28;19930;-78
2022/10/31 06:58:48;;;;;;;;;;;;;;;10.17;88.24;96747.56;4989697;28;20010;-78
2022/10/31 07:01:16;;;;;;;;;;;;;;;10.20;88.23;96742.34;4981665;28;19928;-79
2022/10/31 07:03:42;;;;;;;;;;;;;;;10.24;88.27;96744.50;4977702;28;19929;-79
2022/10/31 07:06:09;;;;;;;;;;;;;;;10.32;87.87;96738.28;4978987;28;19922;-80
2022/10/31 07:08:35;;;;;;;;;;;;;;;10.36;87.34;96742.03;4979513;28;19928;-79
2022/10/31 07:11:02;;;;;;;;;;;;;;;10.47;87.13;96739.88;4977998;28;19922;-78
2022/10/31 07:13:28;;;;;;;;;;;;;;;10.57;87.60;96743.16;4980950;28;19995;-79
2022/10/31 07:15:55;;;;;;;;;;;;;;;10.60;87.40;96748.00;4984700;28;19958;-80
2022/10/31 07:18:23;;;;;;;;;;;;;;;10.71;86.70;96746.66;4984759;28;19930;-79
2022/10/31 07:20:50;;;;;;;;;;;;;;;10.82;86.59;96749.94;4984646;28;19922;-79
2022/10/31 07:23:16;;;;;;;;;;;;;;;10.96;86.54;96747.94;4984032;28;19922;-79
2022/10/31 07:25:43;;;;;;;;;;;;;;;11.05;86.47;96747.97;4984357;28;19922;-79
2022/10/31 07:28:10;;;;;;;;;;;;;;;11.13;85.65;96752.69;4984912;28;19928;-80
2022/10/31 07:30:36;;;;;;;;;;;;;;;11.20;85.71;96747.59;4985758;28;19993;-80
2022/10/31 07:33:03;;;;;;;;;;;;;;;11.29;84.93;96749.59;4987785;28;20029;-79
2022/10/31 07:35:32;;;;;;;;;;;;;;;11.36;83.93;96750.72;4987689;28;19964;-78
2022/10/31 07:37:58;;;;;;;;;;;;;;;11.53;83.42;96743.75;4989049;28;19922;-79
2022/10/31 07:40:25;;;;;;;;;;;;;;;11.61;83.52;96746.53;4983614;28;19922;-79
2022/10/31 07:42:52;;;;;;;;;;;;;;;11.69;82.58;96753.13;4982259;28;19980;-78
2022/10/31 07:45:20;;;;;;;;;;;;;;;11.79;82.99;96749.31;4980226;28;19922;-79
2022/10/31 07:47:47;;;;;;;;;;;;;;;11.89;82.37;96735.41;4980244;28;19922;-78
2022/10/31 07:50:16;;;;;;;;;;;;;;;12.05;81.09;96739.28;4980074;28;19922;-79
2022/10/31 07:52:44;;;;;;;;;;;;;;;12.26;82.13;96739.50;4980260;28;19922;-78
2022/10/31 07:55:11;;;;;;;;;;;;;;;12.51;82.00;96735.19;4981545;28;20001;-79
2022/10/31 07:57:38;;;;;;;;;;;;;;;12.71;81.82;96733.75;4984479;28;19922;-80
2022/10/31 08:00:05;;;;;;;;;;;;;;;12.96;81.68;96729.38;4984775;28;19929;-80
2022/10/31 08:02:31;;;;;;;;;;;;;;;13.14;80.33;96730.94;4983859;28;19922;-79
2022/10/31 08:04:59;;;;;;;;;;;;;;;13.29;79.13;96733.19;4980521;28;19922;-79
2022/10/31 08:07:25;;;;;;;;;;;;;;;13.47;77.84;96733.16;4960477;28;19922;-78
2022/10/31 08:09:53;;;;;;;;;;;;;;;13.59;76.06;96727.78;4977857;28;19926;-78
2022/10/31 08:12:20;;;;;;;;;;;;;;;13.54;75.81;96727.97;4977258;28;19922;-79
2022/10/31 08:14:46;;;;;;;;;;;;;;;13.66;74.14;96722.59;4978708;28;19956;-79
2022/10/31 08:17:13;;;;;;;;;;;;;;;13.87;73.39;96719.94;4977835;28;19969;-78
2022/10/31 08:19:39;;;;;;;;;;;;;;;14.07;72.61;96718.38;4977658;28;19922;-78
2022/10/31 08:22:06;;;;;;;;;;;;;;;14.29;72.60;96715.31;4976843;28;19944;-79
2022/10/31 08:24:32;;;;;;;;;;;;;;;14.38;72.24;96723.47;4977257;28;19958;-78
2022/10/31 08:27:00;;;;;;;;;;;;;;;14.47;72.14;96717.94;4976974;28;19921;-78
2022/10/31 08:29:26;;;;;;;;;;;;;;;14.53;71.65;96709.22;4996287;28;20154;-79
2022/10/31 08:31:53;;;;;;;;;;;;;;;14.58;71.92;96710.97;4996770;28;19922;-78
2022/10/31 08:34:19;;;;;;;;;;;;;;;14.58;71.13;96703.53;4995984;28;19932;-78
2022/10/31 08:36:46;;;;;;;;;;;;;;;14.68;72.95;96710.56;4996964;28;20013;-79
2022/10/31 08:39:12;;;;;;;;;;;;;;;14.70;74.20;96699.25;4996274;28;20262;-78
2022/10/31 08:41:39;;;;;;;;;;;;;;;14.74;73.92;96700.97;4997015;28;19928;-78
2022/10/31 08:44:07;;;;;;;;;;;;;;;14.85;74.19;96693.13;4996029;28;20012;-78
2022/10/31 08:46:34;;;;;;;;;;;;;;;14.80;73.36;96691.41;4978565;28;20292;-79
2022/10/31 08:49:00;;;;;;;;;;;;;;;14.88;72.55;96690.53;4996216;28;19925;-78
2022/10/31 08:51:27;;;;;;;;;;;;;;;14.99;72.89;96692.84;4980027;28;19922;-78
2022/10/31 08:53:53;;;;;;;;;;;;;;;15.13;72.81;96688.66;4996500;28;19943;-78
2022/10/31 08:56:20;;;;;;;;;;;;;;;15.20;72.74;96684.56;4977797;28;19925;-78
2022/10/31 08:58:46;;;;;;;;;;;;;;;15.26;71.33;96684.00;4995997;28;19922;-79
2022/10/31 09:01:14;;;;;;;;;;;;;;;15.37;71.40;96687.09;4995342;28;19943;-78
2022/10/31 09:03:40;;;;;;;;;;;;;;;15.50;70.99;96685.16;4995537;28;19922;-78
2022/10/31 09:06:08;;;;;;;;;;;;;;;15.49;70.38;96681.63;4994892;28;19922;-78
2022/10/31 09:08:35;;;;;;;;;;;;;;;15.35;70.13;96679.22;4995427;28;19929;-78
2022/10/31 09:11:02;;;;;;;;;;;;;;;15.54;70.70;96669.63;4977679;28;20328;-78
2022/10/31 09:13:28;;;;;;;;;;;;;;;15.61;70.33;96665.19;4995600;28;19986;-78
2022/10/31 09:15:57;;;;;;;;;;;;;;;15.78;70.58;96666.91;4996007;28;20105;-78
2022/10/31 09:18:24;;;;;;;;;;;;;;;15.96;69.71;96658.44;4976543;28;19929;-78
2022/10/31 09:20:51;;;;;;;;;;;;;;;16.06;69.17;96658.75;4955800;29;19970;-79
2022/10/31 09:23:18;;;;;;;;;;;;;;;16.24;69.00;96658.50;4956465;28;19929;-78
2022/10/31 09:25:45;;;;;;;;;;;;;;;16.39;68.60;96647.59;4955401;29;19934;-78
2022/10/31 09:28:12;;;;;;;;;;;;;;;16.51;67.90;96656.94;4957620;28;19933;-79
2022/10/31 09:30:39;;;;;;;;;;;;;;;16.58;67.76;96651.63;4959408;28;20012;-79
2022/10/31 09:33:07;;;;;;;;;;;;;;;16.82;67.82;96651.56;4967292;28;20013;-79
2022/10/31 09:35:35;;;;;;;;;;;;;;;16.99;67.09;96647.72;4970049;28;19929;-79
2022/10/31 09:38:02;;;;;;;;;;;;;;;17.25;66.00;96644.47;4970396;28;19922;-79
2022/10/31 09:40:32;;;;;;;;;;;;;;;17.39;65.62;96641.28;4969617;28;19982;-79
2022/10/31 09:43:03;;;;;;;;;;;;;;;17.52;65.44;96645.53;4962305;28;20345;-78
2022/10/31 09:45:32;;;;;;;;;;;;;;;17.47;65.43;96643.84;4960799;28;20005;-78
2022/10/31 09:48:04;;;;;;;;;;;;;;;17.62;66.01;96644.19;4960186;28;19922;-78
2022/10/31 09:50:36;;;;;;;;;;;;;;;17.74;64.94;96635.84;4959663;28;19929;-78
2022/10/31 09:53:06;;;;;;;;;;;;;;;17.79;64.84;96641.09;4960275;28;19993;-78
2022/10/31 09:55:35;;;;;;;;;;;;;;;17.97;65.67;96634.03;4958718;28;19928;-78
2022/10/31 09:58:02;;;;;;;;;;;;;;;18.04;64.87;96638.13;4957571;28;19961;-78
2022/10/31 10:00:31;;;;;;;;;;;;;;;18.24;64.44;96631.47;4959885;28;19922;-79
2022/10/31 10:03:01;;;;;;;;;;;;;;;18.42;64.19;96627.13;4958544;28;19922;-78
2022/10/31 10:05:30;;;;;;;;;;;;;;;18.70;63.40;96632.47;4957564;28;20312;-78
2022/10/31 10:08:01;;;;;;;;;;;;;;;18.86;62.13;96624.09;4957097;28;19981;-78
2022/10/31 10:10:33;;;;;;;;;;;;;;;19.06;61.71;96622.13;4957740;28;20293;-79
2022/10/31 10:13:08;;;;;;;;;;;;;;;19.22;60.67;96619.25;4957071;28;19928;-79
2022/10/31 10:15:42;;;;;;;;;;;;;;;19.20;60.66;96621.56;4956468;28;19929;-78
2022/10/31 10:18:13;;;;;;;;;;;;;;;19.23;61.20;96626.34;4956048;28;19930;-79
2022/10/31 10:20:45;;;;;;;;;;;;;;;19.22;61.55;96613.72;4957120;28;19929;-78
2022/10/31 10:23:18;;;;;;;;;;;;;;;19.38;62.05;96619.91;4950801;28;19922;-79
2022/10/31 10:25:48;;;;;;;;;;;;;;;19.37;60.02;96621.09;4958176;29;19941;-78
2022/10/31 10:28:20;;;;;;;;;;;;;;;19.37;60.05;96621.09;4959188;28;19926;-78
2022/10/31 10:30:49;;;;;;;;;;;;;;;19.27;60.60;96616.19;4958858;28;20025;-79
2022/10/31 10:33:20;;;;;;;;;;;;;;;19.25;60.93;96615.72;4957492;28;20019;-78
2022/10/31 10:35:49;;;;;;;;;;;;;;;19.24;60.78;96612.19;4956445;28;19929;-78
2022/10/31 10:38:18;;;;;;;;;;;;;;;19.26;60.68;96606.28;4957569;28;19977;-79
2022/10/31 10:40:46;;;;;;;;;;;;;;;19.22;60.64;96610.97;4955981;28;19926;-78
2022/10/31 10:43:22;;;;;;;;;;;;;;;19.14;61.09;96612.00;4955316;28;19926;-78
2022/10/31 10:48:40;;;;;;;;;;;;;;;19.12;61.21;96593.03;4938043;29;19930;-79
2022/10/31 10:51:07;;;;;;;;;;;;;;;19.08;61.33;96596.91;4936142;29;19922;-78
2022/10/31 10:53:59;;;;;;;;;;;;;;;19.08;61.59;96594.16;4936983;29;19923;-78
2022/10/31 10:56:34;;;;;;;;;;;;;;;19.00;61.87;96591.25;4938597;29;19923;-79
2022/10/31 10:59:01;;;;;;;;;;;;;;;19.00;61.78;96588.50;4936015;29;20293;-79
2022/10/31 11:01:27;;;;;;;;;;;;;;;19.07;62.05;96584.28;4935350;29;20398;-79
2022/10/31 11:03:54;;;;;;;;;;;;;;;19.14;62.18;96579.66;4935551;29;19929;-79
2022/10/31 11:06:25;;;;;;;;;;;;;;;19.21;62.05;96576.22;4936157;29;20429;-78
2022/10/31 11:08:52;;;;;;;;;;;;;;;19.23;62.23;96571.16;4936232;29;20009;-79
2022/10/31 11:11:27;;;;;;;;;;;;;;;19.25;62.07;96563.28;4935659;29;20289;-79
2022/10/31 11:13:58;;;;;;;;;;;;;;;19.30;62.24;96563.75;4928567;29;19923;-78
2022/10/31 11:16:32;;;;;;;;;;;;;;;19.34;64.13;96555.53;4940029;29;19937;-78
2022/10/31 11:19:08;;;;;;;;;;;;;;;19.46;64.77;96557.31;4955737;29;20289;-79
2022/10/31 11:21:35;;;;;;;;;;;;;;;19.39;64.53;96555.22;4955019;29;19949;-79
2022/10/31 11:24:05;;;;;;;;;;;;;;;19.50;65.78;96547.91;4955162;29;19929;-78
2022/10/31 11:26:34;;;;;;;;;;;;;;;19.47;64.54;96545.09;4954909;29;19922;-78
2022/10/31 11:29:03;;;;;;;;;;;;;;;19.48;64.69;96544.72;4955932;29;20005;-78
2022/10/31 11:31:30;;;;;;;;;;;;;;;19.44;63.70;96541.13;4947207;29;20551;-78
2022/10/31 11:33:58;;;;;;;;;;;;;;;19.45;64.95;96542.69;4955166;29;19922;-78
2022/10/31 11:36:26;;;;;;;;;;;;;;;19.43;66.21;96530.44;4955270;29;19930;-79
2022/10/31 11:38:53;;;;;;;;;;;;;;;19.31;64.81;96536.94;4956150;29;19986;-78
2022/10/31 11:41:24;;;;;;;;;;;;;;;19.32;64.42;96541.31;4956816;29;20284;-78
2022/10/31 11:43:51;;;;;;;;;;;;;;;19.28;64.67;96529.41;4956052;29;19929;-78
2022/10/31 11:46:23;;;;;;;;;;;;;;;19.31;65.76;96528.66;4948654;29;20289;-78
2022/10/31 11:48:51;;;;;;;;;;;;;;;19.30;66.50;96530.63;4948473;29;19973;-79
2022/10/31 11:51:21;;;;;;;;;;;;;;;19.26;66.49;96520.69;4949884;28;20022;-78
2022/10/31 11:53:52;;;;;;;;;;;;;;;19.17;65.73;96514.66;4955266;28;20611;-79
2022/10/31 11:56:18;;;;;;;;;;;;;;;19.09;65.38;96518.44;4955388;28;20465;-79
2022/10/31 11:58:55;;;;;;;;;;;;;;;19.07;65.61;96512.50;4956676;28;19926;-78
2022/10/31 12:01:25;;;;;;;;;;;;;;;19.12;66.46;96509.44;4959332;28;19962;-78
2022/10/31 12:03:55;;;;;;;;;;;;;;;19.23;69.85;96499.38;4952613;28;19922;-78
2022/10/31 12:06:24;;;;;;;;;;;;;;;19.14;69.84;96501.56;4959609;28;20016;-78
2022/10/31 12:08:50;;;;;;;;;;;;;;;19.17;70.23;96506.38;4960079;28;20304;-78
2022/10/31 12:11:28;;;;;;;;;;;;;;;19.23;70.52;96504.88;4958992;28;19929;-78
2022/10/31 12:14:01;;;;;;;;;;;;;;;19.20;70.77;96505.63;4960453;28;19922;-78
2022/10/31 12:16:32;;;;;;;;;;;;;;;19.20;70.94;96511.13;4960379;28;19926;-78
2022/10/31 12:19:01;;;;;;;;;;;;;;;19.12;70.75;96513.00;4959347;28;19962;-78
2022/10/31 12:21:39;;;;;;;;;;;;;;;19.14;70.69;96513.41;4957329;28;19922;-81
2022/10/31 12:24:12;;;;;;;;;;;;;;;19.15;71.09;96508.69;4958381;28;19928;-78
2022/10/31 12:26:43;;;;;;;;;;;;;;;19.00;70.92;96514.00;4958836;28;19922;-78
2022/10/31 12:29:16;;;;;;;;;;;;;;;18.92;70.69;96505.94;4958437;28;20353;-79
2022/10/31 12:31:52;;;;;;;;;;;;;;;18.83;71.10;96508.16;4957859;28;20267;-78
2022/10/31 12:34:31;;;;;;;;;;;;;;;18.81;71.40;96499.47;4957385;28;19923;-79
2022/10/31 12:37:00;;;;;;;;;;;;;;;18.77;71.82;96496.63;4958352;28;19922;-78
2022/10/31 12:39:33;;;;;;;;;;;;;;;18.75;72.29;96501.72;4957681;28;19922;-78
2022/10/31 12:42:06;;;;;;;;;;;;;;;18.77;72.01;96499.38;4959130;28;19923;-78
2022/10/31 12:44:52;;;;;;;;;;;;;;;18.81;72.11;96494.75;4959084;28;20281;-79
2022/10/31 12:47:32;;;;;;;;;;;;;;;18.81;72.82;96483.69;4954966;28;19922;-78
2022/10/31 12:50:02;;;;;;;;;;;;;;;18.60;73.19;96483.31;4960634;28;19927;-78
2022/10/31 12:52:36;;;;;;;;;;;;;;;18.59;73.28;96478.94;4958854;28;19928;-79
2022/10/31 12:55:09;;;;;;;;;;;;;;;18.57;73.59;96478.50;4958297;28;20304;-79
2022/10/31 12:57:40;;;;;;;;;;;;;;;18.38;73.79;96471.09;4959817;28;19922;-78
2022/10/31 13:00:12;;;;;;;;;;;;;;;18.43;73.35;96477.09;4959889;28;19922;-78